Time;durP1;ratioP1;P1;durP2;ratioP2;P2;SDS_P1;SDS_P2;PMS_P1;PMS_P2;Temp;Humidity;BMP_temperature;BMP_pressure;BME280_temperature;BME280_humidity;BME280_pressure;Samples;Min_cycle;Max_cycle;Signal;HPM_P1;HPM_P2
2022/06/09 00:01:15;;;;;;;0.63;0.40;;;25.20;58.00;;;;;;5107000;28;20580;-67
2022/06/09 00:03:53;;;;;;;0.60;0.60;;;25.20;58.10;;;;;;5106973;28;20142;-67
2022/06/09 00:06:22;;;;;;;0.70;0.70;;;25.20;58.00;;;;;;5106640;28;20423;-67
2022/06/09 00:08:52;;;;;;;0.73;0.63;;;25.20;58.00;;;;;;5101718;28;20105;-67
2022/06/09 00:11:24;;;;;;;0.63;0.60;;;25.20;58.00;;;;;;5106527;28;20079;-67
2022/06/09 00:13:52;;;;;;;0.70;0.70;;;25.20;58.10;;;;;;5106844;28;20144;-67
2022/06/09 00:16:19;;;;;;;0.70;0.70;;;25.20;58.00;;;;;;5106391;28;20103;-67
2022/06/09 00:18:47;;;;;;;0.55;0.55;;;25.20;58.00;;;;;;5106104;28;20039;-67
2022/06/09 00:21:14;;;;;;;0.70;0.65;;;25.20;58.00;;;;;;5106974;28;20234;-67
2022/06/09 00:23:41;;;;;;;0.57;0.57;;;25.20;58.00;;;;;;5104840;28;20335;-67
2022/06/09 00:26:08;;;;;;;0.60;0.60;;;25.20;58.00;;;;;;5106096;28;20249;-67
2022/06/09 00:28:36;;;;;;;0.40;0.40;;;25.20;58.00;;;;;;5106166;28;20136;-67
2022/06/09 00:31:03;;;;;;;0.60;0.60;;;25.10;57.90;;;;;;5106485;28;20079;-67
2022/06/09 00:33:30;;;;;;;0.65;0.65;;;25.20;58.00;;;;;;5105905;28;20083;-67
2022/06/09 00:35:57;;;;;;;0.75;0.75;;;25.10;57.90;;;;;;5106206;28;20126;-67
2022/06/09 00:38:25;;;;;;;0.60;0.60;;;25.20;58.00;;;;;;5106302;27;20078;-67
2022/06/09 00:40:57;;;;;;;0.95;0.70;;;25.10;57.90;;;;;;5100099;28;20516;-67
2022/06/09 00:43:26;;;;;;;0.80;0.80;;;25.20;58.00;;;;;;5106208;28;20051;-67
2022/06/09 00:46:16;;;;;;;0.60;0.60;;;25.10;58.00;;;;;;5106727;28;20121;-67
2022/06/09 00:48:55;;;;;;;0.70;0.70;;;25.20;58.00;;;;;;5104055;28;20146;-68
2022/06/09 00:51:41;;;;;;;0.43;0.43;;;25.10;58.00;;;;;;5105749;28;20039;-67
2022/06/09 00:54:16;;;;;;;0.70;0.70;;;25.10;58.00;;;;;;5104883;28;20035;-67
2022/06/09 00:56:48;;;;;;;0.90;0.50;;;25.10;58.00;;;;;;5105655;28;20127;-67
2022/06/09 00:59:19;;;;;;;0.68;0.68;;;25.10;58.00;;;;;;5104883;28;20052;-67
2022/06/09 01:01:47;;;;;;;0.70;0.70;;;25.10;58.00;;;;;;5105694;28;20074;-67
2022/06/09 01:04:17;;;;;;;0.60;0.60;;;25.10;58.00;;;;;;5104242;28;20549;-67
2022/06/09 01:06:58;;;;;;;2.63;0.77;;;25.10;58.00;;;;;;5105499;28;20069;-68
2022/06/09 01:09:27;;;;;;;0.60;0.60;;;25.10;58.00;;;;;;5104591;28;20404;-67
2022/06/09 01:11:55;;;;;;;0.40;0.40;;;25.10;58.00;;;;;;5101061;28;20134;-67
2022/06/09 01:14:27;;;;;;;0.73;0.73;;;25.10;58.00;;;;;;5105396;28;20099;-67
2022/06/09 01:17:18;;;;;;;0.60;0.60;;;25.10;58.10;;;;;;5105814;28;20055;-67
2022/06/09 01:20:14;;;;;;;0.57;0.50;;;25.10;58.00;;;;;;5105740;28;20055;-67
2022/06/09 01:23:16;;;;;;;0.45;0.45;;;25.10;58.10;;;;;;5104512;28;20505;-67
2022/06/09 01:26:13;;;;;;;0.47;0.47;;;25.00;58.00;;;;;;5105818;28;20039;-68
2022/06/09 01:29:17;;;;;;;0.82;0.82;;;25.10;58.10;;;;;;5104560;28;20071;-67
2022/06/09 01:32:00;;;;;;;0.80;0.80;;;25.10;58.10;;;;;;5105561;28;20407;-67
2022/06/09 01:34:44;;;;;;;0.75;0.60;;;25.10;58.10;;;;;;5105333;28;20069;-67
2022/06/09 01:37:15;;;;;;;0.70;0.65;;;25.00;58.00;;;;;;5105081;28;20080;-67
2022/06/09 01:40:01;;;;;;;0.50;0.50;;;25.10;58.10;;;;;;5104104;28;20461;-67
2022/06/09 01:42:38;;;;;;;0.75;0.75;;;25.10;58.10;;;;;;5087448;28;20047;-67
2022/06/09 01:45:17;;;;;;;0.60;0.60;;;25.10;58.10;;;;;;5099749;28;20048;-67
2022/06/09 01:48:02;;;;;;;0.85;0.75;;;25.00;58.00;;;;;;5103940;28;20549;-67
2022/06/09 01:50:51;;;;;;;0.40;0.40;;;25.00;58.00;;;;;;5104823;28;20400;-67
2022/06/09 01:53:33;;;;;;;0.65;0.65;;;25.00;57.90;;;;;;5105086;28;20048;-67
2022/06/09 01:56:10;;;;;;;0.57;0.57;;;25.00;58.00;;;;;;5105843;27;20511;-67
2022/06/09 01:58:56;;;;;;;0.60;0.60;;;25.10;58.00;;;;;;5105273;28;20270;-67
2022/06/09 02:01:29;;;;;;;0.47;0.47;;;25.00;57.90;;;;;;5108957;28;20073;-67
2022/06/09 02:04:03;;;;;;;0.70;0.70;;;25.00;57.90;;;;;;5107762;28;20228;-67
2022/06/09 02:06:34;;;;;;;0.40;0.40;;;25.00;57.90;;;;;;5109158;28;20059;-67
2022/06/09 02:09:03;;;;;;;0.57;0.52;;;25.10;57.90;;;;;;5107753;28;20080;-67
2022/06/09 02:11:31;;;;;;;2.03;0.50;;;25.00;57.90;;;;;;5109944;28;20052;-67
2022/06/09 02:13:59;;;;;;;0.50;0.50;;;25.00;57.90;;;;;;5110262;28;20047;-67
2022/06/09 02:16:26;;;;;;;0.70;0.70;;;25.00;57.90;;;;;;5105280;28;20051;-67
2022/06/09 02:18:56;;;;;;;0.50;0.50;;;25.00;57.90;;;;;;5108283;28;20316;-67
2022/06/09 02:21:27;;;;;;;0.45;0.43;;;25.10;57.90;;;;;;5109366;28;20721;-67
2022/06/09 02:23:55;;;;;;;0.50;0.50;;;25.00;57.80;;;;;;5108612;28;20070;-67
2022/06/09 02:26:23;;;;;;;0.77;0.63;;;25.00;57.80;;;;;;5109432;27;20075;-66
2022/06/09 02:28:51;;;;;;;0.50;0.50;;;25.00;57.90;;;;;;5108481;28;20048;-67
2022/06/09 02:31:20;;;;;;;0.32;0.32;;;25.00;58.40;;;;;;5108380;28;20043;-67
2022/06/09 02:33:48;;;;;;;0.73;0.60;;;25.00;57.90;;;;;;5107592;28;20434;-67
2022/06/09 02:36:16;;;;;;;0.50;0.50;;;25.00;57.90;;;;;;5108353;28;20553;-67
2022/06/09 02:38:43;;;;;;;0.75;0.75;;;25.00;57.90;;;;;;5108763;28;20040;-67
2022/06/09 02:41:11;;;;;;;0.55;0.55;;;25.00;57.90;;;;;;5108050;28;20135;-67
2022/06/09 02:43:39;;;;;;;0.70;0.70;;;25.00;57.90;;;;;;5108217;28;20047;-67
2022/06/09 02:46:07;;;;;;;0.70;0.70;;;25.00;57.90;;;;;;5108882;28;20051;-67
2022/06/09 02:48:34;;;;;;;0.60;0.60;;;25.00;57.90;;;;;;5103326;28;20388;-67
2022/06/09 02:51:28;;;;;;;0.50;0.50;;;25.00;57.90;;;;;;5106855;28;20404;-68
2022/06/09 02:53:57;;;;;;;1.98;0.75;;;25.00;57.90;;;;;;5108529;27;20480;-67
2022/06/09 02:56:25;;;;;;;0.50;0.50;;;25.00;57.90;;;;;;5107283;28;20051;-67
2022/06/09 02:58:53;;;;;;;0.60;0.60;;;25.00;57.90;;;;;;5107402;28;20055;-67
2022/06/09 03:01:21;;;;;;;0.50;0.50;;;25.00;57.80;;;;;;5107946;28;20086;-68
2022/06/09 03:03:48;;;;;;;0.80;0.80;;;25.00;57.80;;;;;;5108142;27;20059;-67
2022/06/09 03:06:16;;;;;;;0.50;0.50;;;25.00;57.80;;;;;;5107870;28;20534;-68
2022/06/09 03:08:43;;;;;;;0.50;0.50;;;25.00;57.80;;;;;;5107806;28;20052;-67
2022/06/09 03:11:10;;;;;;;0.52;0.52;;;25.00;57.70;;;;;;5106363;28;20130;-67
2022/06/09 03:13:39;;;;;;;0.40;0.40;;;25.00;57.70;;;;;;5107569;28;20130;-67
2022/06/09 03:16:08;;;;;;;1.15;0.60;;;25.00;57.70;;;;;;5107717;27;20056;-68
2022/06/09 03:18:35;;;;;;;0.57;0.57;;;25.00;57.70;;;;;;5101859;28;20174;-67
2022/06/09 03:21:04;;;;;;;0.52;0.52;;;25.00;57.60;;;;;;5107876;28;20083;-67
2022/06/09 03:23:31;;;;;;;0.75;0.50;;;25.00;57.60;;;;;;5107353;28;20109;-67
2022/06/09 03:25:59;;;;;;;0.40;0.40;;;25.00;57.50;;;;;;5107612;28;20147;-67
2022/06/09 03:28:26;;;;;;;0.40;0.40;;;25.00;57.40;;;;;;5095823;28;20187;-67
2022/06/09 03:30:55;;;;;;;1.27;0.40;;;25.00;57.40;;;;;;5092250;28;20117;-67
2022/06/09 03:33:22;;;;;;;0.60;0.60;;;25.00;57.30;;;;;;5094799;27;20385;-67
2022/06/09 03:35:50;;;;;;;0.80;0.80;;;25.00;57.30;;;;;;5096019;27;20741;-67
2022/06/09 03:38:18;;;;;;;0.70;0.70;;;25.00;57.20;;;;;;5098148;28;20043;-68
2022/06/09 03:40:45;;;;;;;0.50;0.50;;;25.00;57.20;;;;;;5085894;28;20044;-68
2022/06/09 03:43:12;;;;;;;0.73;0.73;;;25.10;57.20;;;;;;5093309;28;20105;-68
2022/06/09 03:45:40;;;;;;;0.52;0.52;;;25.10;57.10;;;;;;5102608;28;20327;-69
2022/06/09 03:48:07;;;;;;;0.65;0.60;;;25.10;57.10;;;;;;5090384;28;20075;-70
2022/06/09 03:50:34;;;;;;;0.60;0.60;;;25.10;57.00;;;;;;5087329;28;20044;-68
2022/06/09 03:53:02;;;;;;;0.60;0.60;;;25.10;57.00;;;;;;5099600;28;20044;-67
2022/06/09 03:55:30;;;;;;;0.80;0.80;;;25.10;56.90;;;;;;5088634;28;20108;-68
2022/06/09 03:57:58;;;;;;;2.25;0.70;;;25.10;56.90;;;;;;5104072;28;20043;-67
2022/06/09 04:00:28;;;;;;;2.45;0.75;;;25.10;56.80;;;;;;5106686;28;20066;-68
2022/06/09 04:02:55;;;;;;;0.82;0.82;;;25.10;56.70;;;;;;5106617;28;20394;-67
2022/06/09 04:05:23;;;;;;;1.08;0.75;;;25.10;56.60;;;;;;5103206;27;20047;-67
2022/06/09 04:07:50;;;;;;;2.05;0.68;;;25.10;56.60;;;;;;5091213;28;20132;-67
2022/06/09 04:10:21;;;;;;;0.90;0.90;;;25.20;56.50;;;;;;5106394;28;20593;-67
2022/06/09 04:12:48;;;;;;;1.00;1.00;;;25.20;56.50;;;;;;5107032;28;20711;-67
2022/06/09 04:15:16;;;;;;;0.70;0.70;;;25.20;56.40;;;;;;5106761;28;20388;-67
2022/06/09 04:17:44;;;;;;;0.50;0.50;;;25.20;56.30;;;;;;5106448;28;20051;-67
2022/06/09 04:20:13;;;;;;;0.77;0.77;;;25.20;56.30;;;;;;5105551;28;20431;-67
2022/06/09 04:22:40;;;;;;;0.80;0.80;;;25.30;56.40;;;;;;5102197;28;20083;-68
2022/06/09 04:25:15;;;;;;;1.27;1.02;;;25.30;56.30;;;;;;5105488;28;20056;-67
2022/06/09 04:27:42;;;;;;;2.38;0.90;;;25.30;56.20;;;;;;5104840;28;20132;-67
2022/06/09 04:30:10;;;;;;;0.70;0.63;;;25.30;56.10;;;;;;5087265;28;20514;-67
2022/06/09 04:32:37;;;;;;;0.95;0.95;;;25.30;56.10;;;;;;5106168;28;20415;-67
2022/06/09 04:35:05;;;;;;;0.70;0.70;;;25.30;56.00;;;;;;5106198;28;20127;-67
2022/06/09 04:40:19;;;;;;;0.95;0.90;;;25.40;55.90;;;;;;5106053;28;20048;-68
2022/06/09 04:42:46;;;;;;;0.75;0.75;;;25.40;55.90;;;;;;5105967;28;20390;-67
2022/06/09 04:45:14;;;;;;;1.20;0.85;;;25.40;56.30;;;;;;5104438;27;20285;-67
2022/06/09 04:47:41;;;;;;;1.20;1.10;;;25.40;55.70;;;;;;5092613;28;20479;-67
2022/06/09 04:50:10;;;;;;;1.00;1.00;;;25.40;55.70;;;;;;5092163;28;20039;-67
2022/06/09 04:52:37;;;;;;;0.70;0.70;;;25.40;55.60;;;;;;5088256;28;20063;-67
2022/06/09 04:55:06;;;;;;;1.02;0.93;;;25.40;55.60;;;;;;5095316;28;20039;-67
2022/06/09 04:57:33;;;;;;;0.80;0.80;;;25.40;55.50;;;;;;5104502;28;20542;-67
2022/06/09 05:00:00;;;;;;;4.10;0.90;;;25.40;55.40;;;;;;5092038;28;20086;-67
2022/06/09 05:02:28;;;;;;;1.23;0.90;;;25.50;55.40;;;;;;5094435;28;20147;-67
2022/06/09 05:04:55;;;;;;;1.15;1.15;;;25.50;55.30;;;;;;5096865;28;20302;-67
2022/06/09 05:07:23;;;;;;;0.90;0.90;;;25.50;55.20;;;;;;5089534;28;20132;-68
2022/06/09 05:09:50;;;;;;;0.63;0.63;;;25.50;55.10;;;;;;5090447;28;20087;-66
2022/06/09 05:12:17;;;;;;;1.70;1.10;;;25.50;55.10;;;;;;5083448;28;20250;-67
2022/06/09 05:14:45;;;;;;;1.00;1.00;;;25.40;55.20;;;;;;5084965;28;20485;-67
2022/06/09 05:17:12;;;;;;;1.42;1.02;;;25.40;55.30;;;;;;5084975;28;20072;-67
2022/06/09 05:19:39;;;;;;;0.93;0.93;;;25.20;55.50;;;;;;5092070;28;20404;-67
2022/06/09 05:22:06;;;;;;;0.90;0.90;;;25.00;55.70;;;;;;5092608;28;20036;-67
2022/06/09 05:24:33;;;;;;;1.42;0.90;;;24.80;55.50;;;;;;5082653;28;20470;-67
2022/06/09 05:27:01;;;;;;;1.15;1.05;;;24.50;54.60;;;;;;5090452;28;20097;-65
2022/06/09 05:29:29;;;;;;;1.17;1.08;;;24.30;54.10;;;;;;5093369;28;20047;-67
2022/06/09 05:31:57;;;;;;;1.02;0.95;;;23.90;53.20;;;;;;5089163;28;20097;-65
2022/06/09 05:34:32;;;;;;;1.13;1.13;;;23.60;52.90;;;;;;5092494;27;20043;-65
2022/06/09 05:36:59;;;;;;;0.95;0.95;;;23.20;52.10;;;;;;5092959;28;20085;-66
2022/06/09 05:45:04;;;;;;;1.92;1.38;;;22.20;51.90;;;;;;5097884;28;20100;-66
2022/06/09 05:47:31;;;;;;;2.42;1.40;;;21.80;52.20;;;;;;5092485;28;20044;-66
2022/06/09 05:49:59;;;;;;;4.10;1.63;;;21.50;53.50;;;;;;5089472;28;20052;-69
2022/06/09 05:52:28;;;;;;;1.63;1.52;;;21.30;54.00;;;;;;5093138;28;20066;-68
2022/06/09 05:54:56;;;;;;;2.22;1.27;;;21.10;53.80;;;;;;5083571;28;20059;-66
2022/06/09 05:57:26;;;;;;;2.83;1.70;;;20.90;54.60;;;;;;5095193;28;20553;-69
2022/06/09 05:59:54;;;;;;;7.32;2.13;;;20.70;55.70;;;;;;5092584;28;20100;-68
2022/06/09 06:02:24;;;;;;;2.33;2.05;;;20.60;55.30;;;;;;5097322;27;20107;-67
2022/06/09 06:04:53;;;;;;;3.03;2.22;;;20.50;55.00;;;;;;5089148;28;20674;-67
2022/06/09 06:07:20;;;;;;;3.97;2.03;;;20.40;55.40;;;;;;5083834;28;20048;-67
2022/06/09 06:09:48;;;;;;;5.45;2.72;;;20.30;55.80;;;;;;5093241;27;20096;-73
2022/06/09 06:12:16;;;;;;;5.68;3.53;;;20.20;55.30;;;;;;5095131;28;20105;-69
2022/06/09 06:14:43;;;;;;;5.32;2.95;;;20.10;55.40;;;;;;5088902;27;20219;-73
2022/06/09 06:17:11;;;;;;;4.40;3.22;;;20.00;55.80;;;;;;5084854;27;20844;-73
2022/06/09 06:19:38;;;;;;;4.25;3.63;;;19.90;55.90;;;;;;5090997;28;20040;-72
2022/06/09 06:22:08;;;;;;;7.10;3.05;;;19.90;56.50;;;;;;5093612;28;20056;-73
2022/06/09 06:24:36;;;;;;;6.55;3.30;;;19.90;56.50;;;;;;5092043;28;20101;-74
2022/06/09 06:27:04;;;;;;;4.20;2.50;;;19.90;56.50;;;;;;5086652;28;20052;-72
2022/06/09 06:29:51;;;;;;;3.40;2.55;;;19.80;56.30;;;;;;5088347;28;20056;-72
2022/06/09 06:32:19;;;;;;;4.07;2.90;;;19.80;56.70;;;;;;5086895;28;20242;-72
2022/06/09 06:34:46;;;;;;;4.13;2.40;;;19.80;56.90;;;;;;5089554;28;20531;-73
2022/06/09 06:37:13;;;;;;;2.47;2.25;;;19.70;57.00;;;;;;5086090;28;20094;-72
2022/06/09 06:39:40;;;;;;;5.60;2.65;;;19.70;57.50;;;;;;5087074;28;20056;-73
2022/06/09 06:42:08;;;;;;;2.42;2.22;;;19.70;57.10;;;;;;5091620;27;20055;-74
2022/06/09 06:44:35;;;;;;;2.25;2.05;;;19.80;56.50;;;;;;5089254;28;20094;-72
2022/06/09 06:47:02;;;;;;;2.40;2.20;;;19.70;56.50;;;;;;5084541;28;20059;-71
2022/06/09 06:49:30;;;;;;;2.53;1.83;;;19.70;57.90;;;;;;5081971;28;20055;-70
2022/06/09 06:51:57;;;;;;;2.40;1.98;;;19.70;57.20;;;;;;5088079;28;20048;-72
2022/06/09 06:54:24;;;;;;;2.70;2.47;;;19.70;56.30;;;;;;5086579;27;20064;-70
2022/06/09 06:56:52;;;;;;;3.40;3.10;;;19.70;56.80;;;;;;5083698;28;20047;-72
2022/06/09 06:59:19;;;;;;;8.23;2.28;;;19.70;56.90;;;;;;5077520;28;20179;-71
2022/06/09 07:01:46;;;;;;;1.98;1.88;;;19.60;56.70;;;;;;5084548;28;20496;-69
2022/06/09 07:04:15;;;;;;;2.50;2.17;;;19.50;56.90;;;;;;5089218;28;20112;-69
2022/06/09 07:06:42;;;;;;;2.25;2.05;;;19.40;58.00;;;;;;5090527;28;20048;-73
2022/06/09 07:09:10;;;;;;;2.22;2.13;;;19.40;57.80;;;;;;5086053;28;20056;-73
2022/06/09 07:11:39;;;;;;;2.25;2.13;;;19.30;58.30;;;;;;5081737;28;20043;-74
2022/06/09 07:14:06;;;;;;;4.15;1.83;;;19.30;58.60;;;;;;5084561;28;20059;-74
2022/06/09 07:16:33;;;;;;;1.67;1.58;;;19.30;58.30;;;;;;5086593;27;20048;-73
2022/06/09 07:19:16;;;;;;;6.90;3.08;;;19.30;58.00;;;;;;5084019;28;20086;-71
2022/06/09 07:21:44;;;;;;;2.58;1.95;;;19.20;58.60;;;;;;5086767;28;20093;-71
2022/06/09 07:24:12;;;;;;;2.55;2.33;;;19.20;58.50;;;;;;5085226;28;20558;-70
2022/06/09 07:26:40;;;;;;;1.88;1.77;;;19.10;58.70;;;;;;5089217;28;20112;-73
2022/06/09 07:29:07;;;;;;;2.30;2.10;;;19.00;58.50;;;;;;5090566;28;20134;-73
2022/06/09 07:31:34;;;;;;;1.95;1.75;;;19.00;59.00;;;;;;5095985;28;20067;-73
2022/06/09 07:34:03;;;;;;;2.15;1.92;;;18.90;59.20;;;;;;5092675;28;20667;-72
2022/06/09 07:36:32;;;;;;;8.93;3.28;;;18.90;59.20;;;;;;5088738;28;20133;-71
2022/06/09 07:38:59;;;;;;;2.08;1.83;;;18.80;59.10;;;;;;5090448;28;20447;-72
2022/06/09 07:41:26;;;;;;;3.63;2.03;;;18.80;59.60;;;;;;5091391;28;20094;-71
2022/06/09 07:43:57;;;;;;;2.40;2.03;;;18.80;59.30;;;;;;5086683;28;20415;-70
2022/06/09 07:46:24;;;;;;;1.88;1.77;;;18.80;59.20;;;;;;5089418;28;20466;-71
2022/06/09 07:48:52;;;;;;;2.10;1.90;;;18.80;59.20;;;;;;5097731;27;20044;-72
2022/06/09 07:51:20;;;;;;;2.28;1.83;;;18.80;59.80;;;;;;5085442;28;20475;-71
2022/06/09 07:53:47;;;;;;;2.22;1.60;;;18.80;60.00;;;;;;5088094;27;20055;-73
2022/06/09 07:56:15;;;;;;;3.22;1.92;;;18.90;59.70;;;;;;5088809;28;20040;-71
2022/06/09 07:58:42;;;;;;;4.35;1.50;;;18.90;59.70;;;;;;5088033;28;20044;-73
2022/06/09 08:01:10;;;;;;;2.33;1.70;;;19.00;59.30;;;;;;5084490;28;20052;-73
2022/06/09 08:03:40;;;;;;;2.13;1.83;;;18.90;59.30;;;;;;5085741;27;20836;-74
2022/06/09 08:06:09;;;;;;;2.08;1.80;;;19.00;59.20;;;;;;5083984;28;20056;-73
2022/06/09 08:08:55;;;;;;;2.65;2.13;;;19.00;59.00;;;;;;5083641;27;20216;-71
2022/06/09 08:11:28;;;;;;;1.85;1.75;;;19.00;58.80;;;;;;5067999;28;20067;-71
2022/06/09 08:13:58;;;;;;;1.60;1.50;;;19.00;58.80;;;;;;5085390;28;20093;-73
2022/06/09 08:16:29;;;;;;;1.98;1.77;;;19.00;58.50;;;;;;5087975;28;20055;-72
2022/06/09 08:18:57;;;;;;;1.80;1.70;;;19.00;58.80;;;;;;5090118;27;20081;-70
2022/06/09 08:21:27;;;;;;;2.97;2.00;;;18.90;59.20;;;;;;5086365;27;20056;-70
2022/06/09 08:24:12;;;;;;;1.42;1.33;;;18.90;58.90;;;;;;5089485;28;20109;-70
2022/06/09 08:26:40;;;;;;;1.83;1.60;;;18.90;59.00;;;;;;5089950;27;20061;-70
2022/06/09 08:29:07;;;;;;;1.70;1.60;;;18.80;58.90;;;;;;5087978;28;20071;-74
2022/06/09 08:31:35;;;;;;;1.73;1.58;;;18.90;59.30;;;;;;5093812;28;20040;-72
2022/06/09 08:34:02;;;;;;;2.00;1.73;;;18.90;59.50;;;;;;5085192;28;20047;-72
2022/06/09 08:36:30;;;;;;;2.95;1.88;;;18.80;59.20;;;;;;5090283;28;20044;-72
2022/06/09 08:38:57;;;;;;;2.47;1.52;;;18.90;59.40;;;;;;5091123;28;20560;-75
2022/06/09 08:41:50;;;;;;;3.50;2.10;;;18.90;59.60;;;;;;5090417;27;20056;-76
2022/06/09 08:44:48;;;;;;;1.70;1.60;;;19.00;59.90;;;;;;5085162;28;20052;-71
2022/06/09 08:47:33;;;;;;;2.00;1.90;;;19.00;60.00;;;;;;5089758;28;20636;-72
2022/06/09 08:50:24;;;;;;;2.42;2.22;;;19.00;59.40;;;;;;5080845;28;20093;-71
2022/06/09 08:53:09;;;;;;;3.33;2.05;;;19.00;59.60;;;;;;5090544;27;21801;-76
2022/06/09 08:55:47;;;;;;;3.80;2.13;;;19.00;59.50;;;;;;5086785;28;20480;-73
2022/06/09 08:58:32;;;;;;;4.15;2.45;;;19.00;59.70;;;;;;5087034;27;20953;-72
2022/06/09 09:01:22;;;;;;;2.17;1.98;;;19.00;59.20;;;;;;5085351;28;20048;-72
2022/06/09 09:03:58;;;;;;;2.35;2.00;;;19.00;59.10;;;;;;5090311;27;20054;-73
2022/06/09 09:06:37;;;;;;;2.40;2.20;;;19.10;59.20;;;;;;5084164;28;20534;-75
2022/06/09 09:09:22;;;;;;;2.45;2.25;;;19.10;59.20;;;;;;5092206;28;20070;-73
2022/06/09 09:12:08;;;;;;;2.63;2.42;;;19.00;58.80;;;;;;5089442;28;20044;-75
2022/06/09 09:14:53;;;;;;;6.88;2.35;;;19.00;59.00;;;;;;5091690;28;20047;-74
2022/06/09 09:18:00;;;;;;;2.10;2.00;;;19.10;59.80;;;;;;5083917;28;20128;-73
2022/06/09 09:21:07;;;;;;;3.75;2.45;;;19.10;59.40;;;;;;5089239;28;20416;-72
2022/06/09 09:24:14;;;;;;;2.03;1.92;;;19.10;59.20;;;;;;5067781;28;21579;-73
2022/06/09 09:27:16;;;;;;;4.25;2.55;;;19.10;59.20;;;;;;5088640;28;20048;-73
2022/06/09 09:30:13;;;;;;;4.18;2.00;;;19.20;59.40;;;;;;5089349;28;20412;-74
2022/06/09 09:32:45;;;;;;;2.33;2.13;;;19.20;59.40;;;;;;5086814;28;20063;-75
2022/06/09 09:35:34;;;;;;;2.35;2.15;;;19.20;59.60;;;;;;5093405;28;20124;-78
2022/06/09 09:38:02;;;;;;;2.85;2.30;;;19.10;59.60;;;;;;5064439;28;20424;-71
2022/06/09 09:40:42;;;;;;;2.47;2.38;;;19.20;59.50;;;;;;5087585;28;20143;-74
2022/06/09 09:43:15;;;;;;;2.80;2.58;;;19.20;59.70;;;;;;5085810;28;20078;-73
2022/06/09 09:45:56;;;;;;;2.13;2.00;;;19.20;59.70;;;;;;5087057;28;20055;-73
2022/06/09 09:48:32;;;;;;;3.28;2.40;;;19.20;59.60;;;;;;5085848;28;20159;-73
2022/06/09 09:51:13;;;;;;;3.30;3.00;;;19.20;59.50;;;;;;5084919;28;20062;-72
2022/06/09 09:53:58;;;;;;;2.53;2.33;;;19.20;59.60;;;;;;5088203;28;20051;-75
2022/06/09 09:56:36;;;;;;;2.38;2.22;;;19.20;59.40;;;;;;5084952;28;20125;-73
2022/06/09 09:59:19;;;;;;;3.60;2.38;;;19.20;59.60;;;;;;5087941;28;20040;-76
2022/06/09 10:08:37;;;;;;;3.58;2.70;;;19.20;59.80;;;;;;5084901;28;20047;-71
2022/06/09 10:14:48;;;;;;;3.22;2.92;;;19.20;59.70;;;;;;5087099;28;20122;-77
2022/06/09 10:17:43;;;;;;;4.22;2.92;;;19.20;59.70;;;;;;5084484;28;20043;-76
2022/06/09 10:20:35;;;;;;;4.57;2.60;;;19.20;59.30;;;;;;5084669;28;20051;-74
2022/06/09 10:23:42;;;;;;;3.10;2.50;;;19.20;59.30;;;;;;5091461;28;20066;-75
2022/06/09 10:26:21;;;;;;;3.00;2.58;;;19.30;58.70;;;;;;5096928;27;20131;-76
2022/06/09 10:29:21;;;;;;;3.00;2.30;;;19.30;59.10;;;;;;5096985;27;20051;-74
2022/06/09 10:32:03;;;;;;;3.83;2.58;;;19.30;59.00;;;;;;5086816;28;20376;-76
2022/06/09 10:34:43;;;;;;;4.00;2.30;;;19.30;59.40;;;;;;5090074;28;20055;-76
2022/06/09 10:37:25;;;;;;;4.50;1.98;;;19.30;59.20;;;;;;5091131;28;20052;-76
2022/06/09 10:40:16;;;;;;;2.53;2.33;;;19.30;59.10;;;;;;5091980;27;20048;-76
2022/06/09 10:43:13;;;;;;;2.55;2.05;;;19.40;58.60;;;;;;5092086;28;20101;-73
2022/06/09 10:45:48;;;;;;;5.40;2.58;;;19.40;58.70;;;;;;5091095;28;20048;-75
2022/06/09 10:57:42;;;;;;;2.17;1.80;;;19.30;59.50;;;;;;5096775;28;20153;-75
2022/06/09 11:00:15;;;;;;;3.42;1.95;;;19.30;59.50;;;;;;5088143;28;20127;-75
2022/06/09 11:02:48;;;;;;;2.70;2.05;;;19.30;59.90;;;;;;5089271;28;20047;-75
2022/06/09 11:05:21;;;;;;;2.90;2.25;;;19.30;59.60;;;;;;5095704;28;20453;-73
2022/06/09 11:08:07;;;;;;;2.97;2.40;;;19.30;59.60;;;;;;5087923;28;20051;-71
2022/06/09 11:10:59;;;;;;;2.83;2.22;;;19.30;59.60;;;;;;5079821;28;20137;-79
2022/06/09 11:13:59;;;;;;;2.22;1.67;;;19.30;60.30;;;;;;5085312;28;20059;-74
2022/06/09 11:17:00;;;;;;;3.90;2.17;;;19.20;59.60;;;;;;5088813;27;20052;-73
2022/06/09 11:19:56;;;;;;;2.28;2.03;;;19.30;59.90;;;;;;5084654;28;20097;-71
2022/06/09 11:22:50;;;;;;;1.92;1.63;;;19.30;59.20;;;;;;5087314;28;20511;-72
2022/06/09 11:25:48;;;;;;;4.82;1.73;;;19.30;59.40;;;;;;5093644;27;20047;-73
2022/06/09 11:28:50;;;;;;;2.90;1.95;;;19.30;59.10;;;;;;5087583;28;20052;-72
2022/06/09 11:31:44;;;;;;;4.13;1.90;;;19.30;58.90;;;;;;5086943;28;20155;-73
2022/06/09 11:34:38;;;;;;;7.40;1.90;;;19.30;59.00;;;;;;5084912;27;20403;-72
2022/06/09 11:37:27;;;;;;;3.83;2.35;;;19.20;59.00;;;;;;5081101;28;20067;-74
2022/06/09 11:40:34;;;;;;;6.53;2.40;;;19.20;59.70;;;;;;5094699;28;20040;-65
2022/06/09 11:43:37;;;;;;;2.58;1.77;;;19.20;59.50;;;;;;5088927;28;20054;-71
2022/06/09 11:46:13;;;;;;;6.53;1.80;;;19.20;59.70;;;;;;5095912;28;20543;-71
2022/06/09 11:48:45;;;;;;;2.50;2.17;;;19.20;59.80;;;;;;5091318;28;20653;-72
2022/06/09 11:51:20;;;;;;;4.55;2.05;;;19.20;60.70;;;;;;5091197;28;20549;-74
2022/06/09 11:53:58;;;;;;;3.83;2.20;;;19.20;60.50;;;;;;5087851;28;20116;-71
2022/06/09 11:56:45;;;;;;;1.70;1.60;;;19.30;60.50;;;;;;5089257;27;20044;-70
2022/06/09 11:59:22;;;;;;;11.50;2.10;;;19.20;60.50;;;;;;5088394;27;20048;-70
2022/06/09 12:02:19;;;;;;;3.33;1.88;;;19.20;60.90;;;;;;5090799;28;20043;-68
2022/06/09 12:05:14;;;;;;;2.47;2.25;;;19.30;60.40;;;;;;5084840;28;20055;-72
2022/06/09 12:08:08;;;;;;;5.95;2.17;;;19.20;60.00;;;;;;5091897;28;20108;-69
2022/06/09 12:11:08;;;;;;;3.45;2.08;;;19.20;60.00;;;;;;5092860;28;20487;-69
2022/06/09 12:14:10;;;;;;;4.88;2.30;;;19.20;60.30;;;;;;5093200;28;20058;-68
2022/06/09 12:16:56;;;;;;;5.75;2.03;;;19.10;60.60;;;;;;5092192;28;20046;-70
2022/06/09 12:19:31;;;;;;;7.72;1.98;;;19.10;60.70;;;;;;5089665;28;20052;-71
2022/06/09 12:22:38;;;;;;;2.95;1.70;;;19.10;61.20;;;;;;5090258;28;20055;-70
2022/06/09 12:25:26;;;;;;;8.02;2.20;;;19.10;61.00;;;;;;5092288;27;20504;-72
2022/06/09 12:27:54;;;;;;;2.00;1.90;;;19.10;61.70;;;;;;5089211;28;20484;-71
2022/06/09 12:30:29;;;;;;;1.50;1.40;;;19.10;61.40;;;;;;5089952;27;20106;-66
2022/06/09 12:33:21;;;;;;;2.05;1.73;;;19.10;59.90;;;;;;5076851;28;20055;-72
2022/06/09 12:35:54;;;;;;;1.60;1.50;;;19.10;58.90;;;;;;5085647;28;20047;-72
2022/06/09 12:38:30;;;;;;;1.63;1.42;;;19.00;58.70;;;;;;5089301;28;20062;-71
2022/06/09 12:41:10;;;;;;;1.15;1.15;;;18.90;59.30;;;;;;5089788;28;20051;-69
2022/06/09 12:43:42;;;;;;;2.00;1.90;;;18.90;58.00;;;;;;5091145;27;21317;-69
2022/06/09 12:46:25;;;;;;;1.58;1.48;;;18.80;58.60;;;;;;5083055;28;20072;-69
2022/06/09 12:48:54;;;;;;;2.45;1.20;;;18.80;59.50;;;;;;5095828;27;20055;-69
2022/06/09 12:51:29;;;;;;;4.22;1.20;;;18.70;59.10;;;;;;5091036;28;20056;-69
2022/06/09 12:54:05;;;;;;;2.10;1.70;;;18.70;58.90;;;;;;5088898;28;20047;-69
2022/06/09 12:57:02;;;;;;;1.50;1.40;;;18.70;60.70;;;;;;5094253;28;20050;-69
2022/06/09 12:59:34;;;;;;;1.50;1.40;;;18.60;60.00;;;;;;5100173;28;20044;-70
2022/06/09 13:02:19;;;;;;;1.52;1.40;;;18.60;59.40;;;;;;5093072;27;20123;-70
2022/06/09 13:04:54;;;;;;;2.78;1.73;;;18.60;59.60;;;;;;5092230;28;20052;-69
2022/06/09 13:07:29;;;;;;;1.40;1.40;;;18.50;59.70;;;;;;5088090;28;20052;-70
2022/06/09 13:10:18;;;;;;;1.60;1.50;;;18.50;59.00;;;;;;5090028;28;20044;-72
2022/06/09 13:12:50;;;;;;;3.28;1.90;;;18.50;60.60;;;;;;5093365;28;20069;-72
2022/06/09 13:15:38;;;;;;;1.33;1.33;;;18.50;61.20;;;;;;5090499;28;20131;-71
2022/06/09 13:18:17;;;;;;;2.45;1.77;;;18.50;59.60;;;;;;5083122;28;20040;-68
2022/06/09 13:21:00;;;;;;;3.08;1.42;;;18.50;60.10;;;;;;5086810;28;20052;-68
2022/06/09 13:23:29;;;;;;;2.97;1.40;;;18.50;61.40;;;;;;5086711;28;20577;-69
2022/06/09 13:25:57;;;;;;;3.03;1.80;;;18.60;60.40;;;;;;5084242;28;20054;-72
2022/06/09 13:28:47;;;;;;;1.70;1.60;;;18.60;59.80;;;;;;5089252;28;20071;-71
2022/06/09 13:31:38;;;;;;;1.50;1.40;;;18.60;60.20;;;;;;5086620;28;20508;-70
2022/06/09 13:34:21;;;;;;;;;;;18.50;59.10;;;;;;5088828;28;20066;-71
2022/06/09 13:37:09;;;;;;;1.98;1.52;;;18.50;58.60;;;;;;5087033;28;20349;-72
2022/06/09 13:39:49;;;;;;;1.60;1.50;;;18.50;60.00;;;;;;5083671;28;20089;-69
2022/06/09 13:42:24;;;;;;;2.25;1.70;;;18.40;60.10;;;;;;5086568;28;20146;-73
2022/06/09 13:45:14;;;;;;;1.95;1.67;;;18.40;59.40;;;;;;5089175;28;20044;-73
2022/06/09 13:48:20;;;;;;;1.70;1.60;;;18.40;61.60;;;;;;5084839;28;20048;-72
2022/06/09 13:51:10;;;;;;;1.98;1.88;;;18.50;61.30;;;;;;5085008;28;20075;-72
2022/06/09 13:53:48;;;;;;;1.55;1.45;;;18.50;60.10;;;;;;5085722;28;20075;-72
2022/06/09 13:56:17;;;;;;;2.13;1.55;;;18.50;60.40;;;;;;5087024;28;20571;-74
2022/06/09 13:58:44;;;;;;;1.80;1.70;;;18.50;59.60;;;;;;5088461;28;20120;-69